Webcam

2021/09/23 22:50 EBBR 232250Z 24007KT 9999 FEW036 15/13 Q1019 NOSIG

Webcam

--- Refresh now ---